Time;durP1;ratioP1;P1;durP2;ratioP2;P2;SDS_P1;SDS_P2;PMS_P1;PMS_P2;Temp;Humidity;BMP_temperature;BMP_pressure;BME280_temperature;BME280_humidity;BME280_pressure;Samples;Min_cycle;Max_cycle;Signal;HPM_P1;HPM_P2
2023/02/25 00:00:48;;;;;;;;;10.50;5.00;;;;;;;;5008510;28;11532;-81
2023/02/25 00:03:18;;;;;;;;;7.75;4.00;;;;;;;;5005333;28;11591;-81
2023/02/25 00:05:45;;;;;;;;;6.75;4.50;;;;;;;;4986441;28;11567;-81
2023/02/25 00:08:13;;;;;;;;;8.00;6.00;;;;;;;;4990752;28;11533;-80
2023/02/25 00:10:40;;;;;;;;;5.75;4.50;;;;;;;;5024594;28;11569;-81
2023/02/25 00:13:08;;;;;;;;;1.25;1.25;;;;;;;;5005716;28;11542;-80
2023/02/25 00:15:37;;;;;;;;;10.00;5.00;;;;;;;;5010408;28;11513;-81
2023/02/25 00:18:05;;;;;;;;;3.00;3.00;;;;;;;;5022345;28;11589;-81
2023/02/25 00:20:32;;;;;;;;;5.75;5.75;;;;;;;;5025243;28;11529;-81
2023/02/25 00:23:00;;;;;;;;;4.50;4.50;;;;;;;;5022216;28;11479;-80
2023/02/25 00:25:28;;;;;;;;;7.00;5.50;;;;;;;;5011296;28;11553;-80
2023/02/25 00:27:55;;;;;;;;;6.00;3.00;;;;;;;;5008291;28;11586;-80
2023/02/25 00:30:22;;;;;;;;;7.00;4.00;;;;;;;;5016919;28;11611;-81
2023/02/25 00:32:52;;;;;;;;;5.00;5.00;;;;;;;;5020626;28;11493;-81
2023/02/25 00:35:19;;;;;;;;;2.00;2.00;;;;;;;;5013184;28;11661;-80
2023/02/25 00:37:46;;;;;;;;;4.25;2.25;;;;;;;;5005145;28;11526;-81
2023/02/25 00:40:14;;;;;;;;;2.50;2.50;;;;;;;;5024704;28;11583;-80
2023/02/25 00:42:42;;;;;;;;;1.00;1.00;;;;;;;;5023320;28;11593;-82
2023/02/25 00:45:11;;;;;;;;;4.50;2.50;;;;;;;;5021214;28;11558;-81
2023/02/25 00:47:39;;;;;;;;;5.25;4.00;;;;;;;;5008059;28;11585;-81
2023/02/25 00:50:09;;;;;;;;;6.75;3.00;;;;;;;;5022250;28;11569;-80
2023/02/25 00:52:37;;;;;;;;;2.50;2.50;;;;;;;;5019471;28;11505;-81
2023/02/25 00:55:05;;;;;;;;;2.00;2.00;;;;;;;;5018372;28;11652;-81
2023/02/25 00:57:33;;;;;;;;;2.75;2.75;;;;;;;;5023702;28;11581;-81
2023/02/25 01:00:00;;;;;;;;;5.00;3.00;;;;;;;;5018232;28;11563;-80
2023/02/25 01:02:28;;;;;;;;;2.75;2.75;;;;;;;;5008151;28;11573;-82
2023/02/25 01:04:55;;;;;;;;;1.00;1.00;;;;;;;;5019173;28;11525;-80
2023/02/25 01:07:24;;;;;;;;;2.00;2.00;;;;;;;;5004671;28;11558;-81
2023/02/25 01:09:55;;;;;;;;;2.75;2.75;;;;;;;;5000550;28;11539;-81
2023/02/25 01:12:22;;;;;;;;;3.00;2.00;;;;;;;;5010058;28;11526;-81
2023/02/25 01:14:50;;;;;;;;;4.50;4.50;;;;;;;;5018795;28;11484;-81
2023/02/25 01:17:18;;;;;;;;;5.50;5.50;;;;;;;;5015702;28;11568;-81
2023/02/25 01:19:45;;;;;;;;;4.00;4.00;;;;;;;;5005630;28;11562;-80
2023/02/25 01:22:13;;;;;;;;;3.00;3.00;;;;;;;;5016561;28;11511;-81
2023/02/25 01:24:42;;;;;;;;;5.25;4.50;;;;;;;;5018456;28;11505;-80
2023/02/25 01:27:10;;;;;;;;;1.00;1.00;;;;;;;;5019091;28;11569;-81
2023/02/25 01:29:39;;;;;;;;;2.00;2.00;;;;;;;;5004834;28;11639;-80
2023/02/25 01:32:09;;;;;;;;;2.75;2.75;;;;;;;;5022748;28;11745;-80
2023/02/25 01:34:36;;;;;;;;;1.00;1.00;;;;;;;;5003699;28;11476;-81
2023/02/25 01:37:04;;;;;;;;;6.50;5.00;;;;;;;;5021192;28;11611;-81
2023/02/25 01:39:32;;;;;;;;;1.75;1.75;;;;;;;;5014574;28;11549;-81
2023/02/25 01:42:04;;;;;;;;;1.25;1.25;;;;;;;;5017869;28;11628;-80
2023/02/25 01:44:32;;;;;;;;;2.25;2.25;;;;;;;;5017228;28;11488;-81
2023/02/25 01:47:01;;;;;;;;;5.00;2.00;;;;;;;;5005215;28;11628;-81
2023/02/25 01:49:32;;;;;;;;;3.00;3.00;;;;;;;;5018790;28;11595;-81
2023/02/25 01:52:05;;;;;;;;;2.25;2.25;;;;;;;;5019177;28;11568;-80
2023/02/25 01:54:33;;;;;;;;;5.75;5.00;;;;;;;;5016749;28;11644;-80
2023/02/25 01:57:06;;;;;;;;;2.00;2.00;;;;;;;;5018284;28;11571;-81
2023/02/25 01:59:33;;;;;;;;;4.50;4.50;;;;;;;;5001845;28;11584;-81
2023/02/25 02:02:01;;;;;;;;;5.00;2.00;;;;;;;;5015196;28;11522;-81
2023/02/25 02:04:29;;;;;;;;;3.00;3.00;;;;;;;;5009514;28;12278;-80
2023/02/25 02:06:57;;;;;;;;;5.00;2.00;;;;;;;;5001655;28;11570;-80
2023/02/25 02:09:27;;;;;;;;;4.75;2.00;;;;;;;;5006447;28;11522;-80
2023/02/25 02:11:56;;;;;;;;;2.00;2.00;;;;;;;;5003567;28;11824;-81
2023/02/25 02:14:29;;;;;;;;;1.50;1.00;;;;;;;;4999742;28;11512;-80
2023/02/25 02:17:06;;;;;;;;;2.75;2.75;;;;;;;;5004594;28;11556;-81
2023/02/25 02:20:07;;;;;;;;;1.25;1.25;;;;;;;;4991512;28;11520;-81
2023/02/25 02:22:42;;;;;;;;;6.25;2.00;;;;;;;;5003126;28;12291;-81
2023/02/25 02:25:39;;;;;;;;;2.75;2.75;;;;;;;;5009868;28;11497;-80
2023/02/25 02:28:45;;;;;;;;;2.00;2.00;;;;;;;;5009992;28;12761;-81
2023/02/25 02:31:24;;;;;;;;;2.00;2.00;;;;;;;;5003021;28;11531;-81
2023/02/25 02:33:58;;;;;;;;;3.00;3.00;;;;;;;;4993443;28;11536;-81
2023/02/25 02:36:34;;;;;;;;;3.50;3.00;;;;;;;;5002314;28;11500;-82
2023/02/25 02:39:07;;;;;;;;;5.75;2.25;;;;;;;;5005213;28;11575;-81
2023/02/25 02:41:37;;;;;;;;;5.25;3.50;;;;;;;;5000260;28;12440;-79
2023/02/25 02:44:08;;;;;;;;;4.50;4.50;;;;;;;;5013187;28;12284;-80
2023/02/25 02:46:40;;;;;;;;;5.00;5.00;;;;;;;;5006512;28;11521;-80
2023/02/25 02:49:11;;;;;;;;;5.00;5.00;;;;;;;;5005171;28;11527;-81
2023/02/25 02:51:44;;;;;;;;;11.00;6.25;;;;;;;;5009073;28;12331;-81
2023/02/25 02:54:12;;;;;;;;;6.75;6.75;;;;;;;;5006297;28;12318;-82
2023/02/25 02:56:43;;;;;;;;;8.50;4.00;;;;;;;;4999348;28;12261;-81
2023/02/25 02:59:15;;;;;;;;;8.00;5.50;;;;;;;;5007403;28;11497;-81
2023/02/25 03:01:50;;;;;;;;;10.00;6.00;;;;;;;;4987913;28;11506;-81
2023/02/25 03:04:22;;;;;;;;;5.00;5.00;;;;;;;;5003665;28;11574;-82
2023/02/25 03:06:51;;;;;;;;;6.00;6.00;;;;;;;;5003243;28;11512;-81
2023/02/25 03:09:21;;;;;;;;;5.00;2.50;;;;;;;;5020588;28;11565;-81
2023/02/25 03:11:49;;;;;;;;;5.25;2.50;;;;;;;;5021528;28;11527;-80
2023/02/25 03:14:17;;;;;;;;;7.25;5.00;;;;;;;;5010144;28;11571;-80
2023/02/25 03:16:51;;;;;;;;;5.25;5.25;;;;;;;;5021462;28;11587;-81
2023/02/25 03:19:21;;;;;;;;;3.00;3.00;;;;;;;;5022531;28;11656;-81
2023/02/25 03:21:50;;;;;;;;;2.25;1.75;;;;;;;;5018931;28;12330;-82
2023/02/25 03:24:21;;;;;;;;;2.00;2.00;;;;;;;;5004324;28;11545;-81
2023/02/25 03:26:49;;;;;;;;;5.00;5.00;;;;;;;;5006272;28;11640;-80
2023/02/25 03:29:18;;;;;;;;;2.00;2.00;;;;;;;;5015238;28;11535;-81
2023/02/25 03:31:55;;;;;;;;;6.75;3.50;;;;;;;;5009801;28;11546;-81
2023/02/25 03:34:25;;;;;;;;;6.00;4.00;;;;;;;;5020269;28;11658;-82
2023/02/25 03:36:57;;;;;;;;;3.00;3.00;;;;;;;;5019874;28;11559;-81
2023/02/25 03:39:28;;;;;;;;;3.00;3.00;;;;;;;;4988059;28;11614;-81
2023/02/25 03:41:59;;;;;;;;;2.25;2.25;;;;;;;;5020243;28;11476;-80
2023/02/25 03:44:31;;;;;;;;;2.00;2.00;;;;;;;;5014383;28;11569;-81
2023/02/25 03:47:02;;;;;;;;;3.50;3.50;;;;;;;;5022676;28;11494;-81
2023/02/25 03:49:33;;;;;;;;;7.00;7.00;;;;;;;;5008160;28;11545;-81
2023/02/25 03:52:04;;;;;;;;;12.00;9.75;;;;;;;;5018390;28;12723;-83
2023/02/25 03:54:32;;;;;;;;;3.00;3.00;;;;;;;;5021348;28;12440;-81
2023/02/25 03:56:59;;;;;;;;;4.75;2.25;;;;;;;;5022718;28;11502;-80
2023/02/25 03:59:27;;;;;;;;;3.00;3.00;;;;;;;;5022930;28;11584;-80
2023/02/25 04:01:55;;;;;;;;;3.25;2.25;;;;;;;;5018477;28;11561;-82
2023/02/25 04:04:24;;;;;;;;;2.25;2.25;;;;;;;;5005871;28;11522;-82
2023/02/25 04:06:51;;;;;;;;;2.00;0.75;;;;;;;;5021437;28;11527;-80
2023/02/25 04:09:19;;;;;;;;;4.25;2.00;;;;;;;;5022130;28;11524;-81
2023/02/25 04:11:47;;;;;;;;;3.25;3.25;;;;;;;;5021630;28;11634;-81
2023/02/25 04:14:17;;;;;;;;;6.00;5.25;;;;;;;;5010431;28;12111;-81
2023/02/25 04:16:44;;;;;;;;;1.75;1.75;;;;;;;;5020208;28;11509;-81
2023/02/25 04:19:12;;;;;;;;;5.25;5.25;;;;;;;;5022135;28;11632;-81
2023/02/25 04:21:41;;;;;;;;;6.25;3.75;;;;;;;;5008907;28;11572;-81
2023/02/25 04:24:09;;;;;;;;;5.00;3.75;;;;;;;;5022526;28;11677;-81
2023/02/25 04:26:37;;;;;;;;;5.00;5.00;;;;;;;;4990113;28;12573;-81
2023/02/25 04:29:04;;;;;;;;;3.50;2.00;;;;;;;;5011308;28;12207;-80
2023/02/25 04:31:32;;;;;;;;;5.50;2.25;;;;;;;;5022255;28;11727;-81
2023/02/25 04:33:59;;;;;;;;;5.00;4.75;;;;;;;;5022683;28;12379;-81
2023/02/25 04:36:29;;;;;;;;;5.25;3.25;;;;;;;;5020960;28;11595;-81
2023/02/25 04:39:00;;;;;;;;;3.50;3.50;;;;;;;;5020646;28;11575;-81
2023/02/25 04:41:30;;;;;;;;;5.00;5.00;;;;;;;;5019924;28;11634;-81
2023/02/25 04:43:57;;;;;;;;;4.50;4.50;;;;;;;;5021714;28;11530;-81
2023/02/25 04:46:25;;;;;;;;;4.75;4.75;;;;;;;;5017682;28;11533;-81
2023/02/25 04:48:52;;;;;;;;;5.00;5.00;;;;;;;;4985795;28;11531;-82
2023/02/25 04:51:20;;;;;;;;;7.25;5.00;;;;;;;;5023231;28;11556;-81
2023/02/25 04:53:47;;;;;;;;;9.00;5.00;;;;;;;;5004544;28;11558;-81
2023/02/25 04:56:16;;;;;;;;;2.50;2.50;;;;;;;;5005337;28;11555;-82
2023/02/25 04:58:44;;;;;;;;;4.25;4.25;;;;;;;;4988933;28;11558;-80
2023/02/25 05:01:12;;;;;;;;;4.00;4.00;;;;;;;;5019309;28;11518;-81
2023/02/25 05:03:39;;;;;;;;;3.75;3.75;;;;;;;;5021346;28;11571;-82
2023/02/25 05:06:08;;;;;;;;;4.50;4.00;;;;;;;;5023195;28;11577;-82
2023/02/25 05:08:36;;;;;;;;;5.25;5.25;;;;;;;;5021697;28;11559;-81
2023/02/25 05:11:04;;;;;;;;;7.00;2.75;;;;;;;;5026037;28;11496;-82
2023/02/25 05:13:34;;;;;;;;;5.00;5.00;;;;;;;;5023396;28;11519;-81
2023/02/25 05:16:06;;;;;;;;;5.00;4.00;;;;;;;;5017442;28;11509;-82
2023/02/25 05:18:37;;;;;;;;;4.00;2.00;;;;;;;;5006528;28;11566;-81
2023/02/25 05:21:05;;;;;;;;;0.00;0.00;;;;;;;;5020670;28;11647;-82
2023/02/25 05:23:32;;;;;;;;;6.50;4.00;;;;;;;;5004250;28;11571;-82
2023/02/25 05:26:00;;;;;;;;;5.75;3.00;;;;;;;;5022060;28;11521;-81
2023/02/25 05:28:27;;;;;;;;;5.25;4.50;;;;;;;;4993305;28;12106;-81
2023/02/25 05:30:56;;;;;;;;;3.25;3.00;;;;;;;;5002863;28;11691;-82
2023/02/25 05:33:24;;;;;;;;;4.75;2.25;;;;;;;;5019850;28;11818;-81
2023/02/25 05:35:51;;;;;;;;;2.00;2.00;;;;;;;;5006894;28;11515;-81
2023/02/25 05:38:19;;;;;;;;;5.50;4.00;;;;;;;;5028036;28;12334;-82
2023/02/25 05:40:46;;;;;;;;;5.00;2.25;;;;;;;;4992286;28;11559;-82
2023/02/25 05:43:14;;;;;;;;;1.00;1.00;;;;;;;;5009676;28;11648;-81
2023/02/25 05:45:41;;;;;;;;;1.75;1.75;;;;;;;;5010558;28;11574;-81
2023/02/25 05:48:10;;;;;;;;;3.50;3.50;;;;;;;;5016865;28;11506;-81
2023/02/25 05:50:40;;;;;;;;;3.75;1.00;;;;;;;;5026327;28;11491;-80
2023/02/25 05:53:08;;;;;;;;;2.25;2.25;;;;;;;;4993406;28;11569;-81
2023/02/25 05:55:36;;;;;;;;;2.50;2.00;;;;;;;;5026361;28;11492;-82
2023/02/25 05:58:03;;;;;;;;;2.50;2.50;;;;;;;;5022797;28;11479;-81
2023/02/25 06:00:31;;;;;;;;;6.00;5.25;;;;;;;;5003149;28;11492;-81
2023/02/25 06:02:59;;;;;;;;;6.00;3.50;;;;;;;;5007849;28;11540;-81
2023/02/25 06:05:29;;;;;;;;;6.00;4.50;;;;;;;;4988096;28;11530;-81
2023/02/25 06:07:56;;;;;;;;;4.50;3.50;;;;;;;;5000358;28;11646;-82
2023/02/25 06:10:24;;;;;;;;;3.25;3.25;;;;;;;;5003953;28;12314;-82
2023/02/25 06:12:52;;;;;;;;;4.75;4.75;;;;;;;;5001697;28;11531;-81
2023/02/25 06:15:19;;;;;;;;;11.50;9.50;;;;;;;;5003924;28;12312;-82
2023/02/25 06:17:47;;;;;;;;;11.25;7.75;;;;;;;;4983764;28;11546;-81
2023/02/25 06:20:15;;;;;;;;;5.25;2.75;;;;;;;;5000325;28;11567;-81
2023/02/25 06:22:44;;;;;;;;;5.00;5.00;;;;;;;;5001054;28;11739;-81
2023/02/25 06:25:12;;;;;;;;;4.00;2.75;;;;;;;;5001610;28;11525;-81
2023/02/25 06:27:40;;;;;;;;;2.50;1.50;;;;;;;;5004939;28;11536;-81
2023/02/25 06:30:09;;;;;;;;;10.50;5.50;;;;;;;;5002246;28;11511;-81
2023/02/25 06:32:36;;;;;;;;;8.25;6.25;;;;;;;;4988103;28;11461;-82
2023/02/25 06:35:05;;;;;;;;;6.00;6.00;;;;;;;;5008070;28;11510;-81
2023/02/25 06:37:33;;;;;;;;;6.00;6.00;;;;;;;;5005583;28;11492;-81
2023/02/25 06:40:03;;;;;;;;;6.00;3.25;;;;;;;;4999609;28;11498;-82
2023/02/25 06:42:30;;;;;;;;;2.25;2.25;;;;;;;;4976415;28;11557;-81
2023/02/25 06:44:57;;;;;;;;;3.00;3.00;;;;;;;;5008248;28;11536;-82
2023/02/25 06:47:25;;;;;;;;;4.50;2.00;;;;;;;;5004699;28;11547;-82
2023/02/25 06:49:52;;;;;;;;;6.00;3.00;;;;;;;;4993163;28;12022;-82
2023/02/25 06:52:20;;;;;;;;;5.25;4.75;;;;;;;;5005777;28;11520;-82
2023/02/25 06:54:47;;;;;;;;;5.25;5.25;;;;;;;;5006861;28;11499;-81
2023/02/25 06:57:17;;;;;;;;;8.50;8.50;;;;;;;;5007213;28;11524;-81
2023/02/25 06:59:44;;;;;;;;;2.00;2.00;;;;;;;;4994101;28;11534;-82
2023/02/25 07:02:13;;;;;;;;;4.50;4.50;;;;;;;;5003401;28;11534;-82
2023/02/25 07:04:40;;;;;;;;;5.00;2.50;;;;;;;;5019836;28;11589;-82
2023/02/25 07:07:09;;;;;;;;;3.00;2.25;;;;;;;;4992017;28;11555;-82
2023/02/25 07:09:36;;;;;;;;;5.75;1.50;;;;;;;;5011296;28;11551;-81
2023/02/25 07:12:04;;;;;;;;;5.00;5.00;;;;;;;;5001733;28;11487;-81
2023/02/25 07:14:33;;;;;;;;;5.00;3.00;;;;;;;;5023409;28;11520;-80
2023/02/25 07:17:01;;;;;;;;;2.75;2.75;;;;;;;;5023415;28;11551;-73
2023/02/25 07:19:29;;;;;;;;;2.00;2.00;;;;;;;;5024881;28;11513;-72
2023/02/25 07:21:56;;;;;;;;;7.50;3.00;;;;;;;;5030620;28;11539;-73
2023/02/25 07:24:25;;;;;;;;;2.25;2.25;;;;;;;;5026902;28;11497;-75
2023/02/25 07:26:54;;;;;;;;;6.25;2.00;;;;;;;;5012133;28;11653;-73
2023/02/25 07:29:22;;;;;;;;;2.00;2.00;;;;;;;;5019833;28;12313;-74
2023/02/25 07:31:50;;;;;;;;;2.75;2.00;;;;;;;;5021510;28;11614;-73
2023/02/25 07:34:18;;;;;;;;;4.50;2.00;;;;;;;;5021093;28;11612;-72
2023/02/25 07:36:45;;;;;;;;;5.50;5.50;;;;;;;;5019482;28;11554;-73
2023/02/25 07:39:13;;;;;;;;;6.25;6.25;;;;;;;;5018628;28;11516;-73
2023/02/25 07:41:40;;;;;;;;;14.25;6.25;;;;;;;;5009275;28;11540;-72
2023/02/25 07:44:09;;;;;;;;;5.25;5.25;;;;;;;;5023369;28;11591;-72
2023/02/25 07:46:36;;;;;;;;;6.00;6.00;;;;;;;;5009380;28;11483;-72
2023/02/25 07:49:05;;;;;;;;;11.00;10.50;;;;;;;;5023639;28;11511;-72
2023/02/25 07:51:32;;;;;;;;;6.00;3.50;;;;;;;;5005153;28;11565;-72
2023/02/25 07:54:00;;;;;;;;;6.00;6.00;;;;;;;;5010104;28;11518;-72
2023/02/25 07:56:29;;;;;;;;;10.50;8.50;;;;;;;;5022985;28;11484;-72
2023/02/25 07:58:56;;;;;;;;;8.50;6.50;;;;;;;;5019111;28;11608;-73
2023/02/25 08:01:27;;;;;;;;;5.00;5.00;;;;;;;;5025118;28;11542;-73
2023/02/25 08:03:56;;;;;;;;;5.75;5.00;;;;;;;;5006395;28;11519;-72
2023/02/25 08:06:26;;;;;;;;;7.00;7.00;;;;;;;;5020936;28;11492;-71
2023/02/25 08:08:54;;;;;;;;;8.00;8.00;;;;;;;;5021153;28;12325;-72
2023/02/25 08:11:23;;;;;;;;;7.25;7.00;;;;;;;;5020136;28;11529;-71
2023/02/25 08:13:50;;;;;;;;;4.75;4.75;;;;;;;;5017620;28;11510;-72
2023/02/25 08:16:19;;;;;;;;;15.00;13.75;;;;;;;;5024626;28;11520;-72
2023/02/25 08:18:47;;;;;;;;;22.75;17.75;;;;;;;;5025174;28;11534;-73
2023/02/25 08:21:17;;;;;;;;;18.25;18.25;;;;;;;;5023055;28;11606;-71
2023/02/25 08:23:47;;;;;;;;;6.25;5.00;;;;;;;;5022497;28;11560;-72
2023/02/25 08:26:16;;;;;;;;;9.50;9.00;;;;;;;;5022117;28;11482;-72
2023/02/25 08:28:44;;;;;;;;;11.75;11.75;;;;;;;;5022014;28;11504;-71
2023/02/25 08:31:12;;;;;;;;;29.00;18.25;;;;;;;;5021578;28;11555;-72
2023/02/25 08:33:40;;;;;;;;;21.50;17.75;;;;;;;;5019692;28;11560;-72
2023/02/25 08:36:10;;;;;;;;;8.25;6.00;;;;;;;;5022794;28;11693;-72
2023/02/25 08:38:38;;;;;;;;;17.75;17.75;;;;;;;;5020685;28;11654;-71
2023/02/25 08:41:08;;;;;;;;;25.00;25.00;;;;;;;;5022978;28;11529;-72
2023/02/25 08:43:35;;;;;;;;;6.00;2.00;;;;;;;;5004295;28;11551;-72
2023/02/25 08:46:03;;;;;;;;;11.25;11.25;;;;;;;;5017798;28;12309;-71
2023/02/25 08:48:30;;;;;;;;;6.00;4.00;;;;;;;;5019632;28;11921;-71
2023/02/25 08:51:02;;;;;;;;;10.00;6.50;;;;;;;;5019763;28;11499;-72
2023/02/25 08:53:30;;;;;;;;;9.50;6.00;;;;;;;;5023945;28;11520;-71
2023/02/25 08:55:57;;;;;;;;;7.00;6.75;;;;;;;;5022933;28;11590;-71
2023/02/25 08:58:27;;;;;;;;;9.00;9.00;;;;;;;;5021352;28;11478;-72
2023/02/25 09:00:54;;;;;;;;;7.50;7.50;;;;;;;;5019520;28;12305;-71
2023/02/25 09:03:22;;;;;;;;;6.00;6.00;;;;;;;;5021331;28;11550;-71
2023/02/25 09:05:52;;;;;;;;;10.50;9.75;;;;;;;;5019189;28;11505;-72
2023/02/25 09:08:19;;;;;;;;;7.75;7.00;;;;;;;;5017816;28;11568;-72
2023/02/25 09:10:46;;;;;;;;;11.25;8.50;;;;;;;;5002130;28;11613;-71
2023/02/25 09:13:14;;;;;;;;;20.75;16.50;;;;;;;;5018508;28;11522;-72
2023/02/25 09:15:43;;;;;;;;;16.00;14.75;;;;;;;;5019782;28;11601;-71
2023/02/25 09:18:11;;;;;;;;;14.50;11.50;;;;;;;;5018741;28;11568;-71
2023/02/25 09:20:39;;;;;;;;;24.75;18.75;;;;;;;;5021104;28;11625;-71
2023/02/25 09:23:06;;;;;;;;;12.50;10.50;;;;;;;;5004297;28;11559;-70
2023/02/25 09:25:33;;;;;;;;;24.50;24.50;;;;;;;;5002578;28;11590;-73
2023/02/25 09:28:00;;;;;;;;;23.75;19.00;;;;;;;;5022493;28;12417;-71
2023/02/25 09:30:28;;;;;;;;;15.25;13.50;;;;;;;;5002745;28;11566;-71
2023/02/25 09:32:56;;;;;;;;;22.00;17.75;;;;;;;;5019611;28;11532;-72
2023/02/25 09:35:24;;;;;;;;;8.00;6.25;;;;;;;;5022003;28;11579;-71
2023/02/25 09:37:51;;;;;;;;;7.50;3.75;;;;;;;;5023350;28;12269;-72
2023/02/25 09:40:21;;;;;;;;;7.75;5.00;;;;;;;;5021013;28;11452;-71
2023/02/25 09:42:58;;;;;;;;;5.50;5.50;;;;;;;;5017395;28;12351;-72
2023/02/25 09:45:27;;;;;;;;;3.25;2.00;;;;;;;;4998341;28;11510;-72
2023/02/25 09:47:59;;;;;;;;;7.00;7.00;;;;;;;;5020961;28;11425;-72
2023/02/25 09:50:30;;;;;;;;;5.00;5.00;;;;;;;;5019494;28;11439;-72
2023/02/25 09:53:04;;;;;;;;;3.25;3.25;;;;;;;;5019800;28;11464;-72
2023/02/25 09:55:33;;;;;;;;;4.00;4.00;;;;;;;;5021028;28;11447;-71
2023/02/25 09:58:07;;;;;;;;;3.75;3.00;;;;;;;;5018931;28;12334;-74
2023/02/25 10:00:38;;;;;;;;;7.25;3.00;;;;;;;;5024901;28;11465;-73
2023/02/25 10:03:15;;;;;;;;;3.25;3.25;;;;;;;;5020075;28;11438;-74
2023/02/25 10:05:47;;;;;;;;;3.00;3.00;;;;;;;;5021749;28;11435;-74
2023/02/25 10:08:19;;;;;;;;;3.00;3.00;;;;;;;;5007665;28;11508;-75
2023/02/25 10:11:00;;;;;;;;;8.50;7.50;;;;;;;;5019932;28;11433;-75
2023/02/25 10:13:43;;;;;;;;;8.75;7.25;;;;;;;;5021400;28;11501;-75
2023/02/25 10:16:26;;;;;;;;;3.00;3.00;;;;;;;;5023642;28;11603;-74
2023/02/25 10:19:05;;;;;;;;;6.25;5.00;;;;;;;;5022077;28;11501;-74
2023/02/25 10:21:46;;;;;;;;;4.00;4.00;;;;;;;;5004836;28;11219;-75
2023/02/25 10:24:28;;;;;;;;;9.25;5.50;;;;;;;;5005211;28;11955;-75
2023/02/25 10:26:59;;;;;;;;;5.00;3.00;;;;;;;;5021472;28;11429;-75
2023/02/25 10:29:30;;;;;;;;;10.75;8.75;;;;;;;;5018622;28;11808;-76
2023/02/25 10:32:00;;;;;;;;;4.75;4.75;;;;;;;;5006640;28;11014;-75
2023/02/25 10:34:31;;;;;;;;;8.00;3.00;;;;;;;;5022181;28;10924;-75
2023/02/25 10:37:00;;;;;;;;;10.00;9.75;;;;;;;;5020883;28;10687;-75
2023/02/25 10:39:30;;;;;;;;;5.00;4.50;;;;;;;;5026108;28;11376;-75
2023/02/25 10:41:57;;;;;;;;;11.25;9.50;;;;;;;;5004547;28;10705;-75
2023/02/25 10:44:24;;;;;;;;;10.75;4.00;;;;;;;;5022027;28;11497;-75
2023/02/25 10:46:56;;;;;;;;;10.25;10.25;;;;;;;;5006213;28;10527;-75
2023/02/25 10:49:25;;;;;;;;;2.75;2.75;;;;;;;;5022416;28;11628;-75
2023/02/25 10:52:02;;;;;;;;;3.00;3.00;;;;;;;;5020173;28;10464;-75
2023/02/25 10:54:31;;;;;;;;;2.00;2.00;;;;;;;;5020362;28;10427;-74
2023/02/25 10:57:01;;;;;;;;;3.00;3.00;;;;;;;;5023596;28;10389;-74
2023/02/25 10:59:32;;;;;;;;;1.00;1.00;;;;;;;;5002848;28;10414;-75
2023/02/25 11:02:00;;;;;;;;;4.00;3.00;;;;;;;;5002575;28;11032;-75
2023/02/25 11:04:32;;;;;;;;;5.00;5.00;;;;;;;;5005485;28;10308;-75
2023/02/25 11:07:01;;;;;;;;;1.75;1.75;;;;;;;;5003948;28;10512;-73
2023/02/25 11:09:32;;;;;;;;;3.50;1.00;;;;;;;;4999523;28;10409;-76
2023/02/25 11:12:02;;;;;;;;;2.00;2.00;;;;;;;;5008045;28;10448;-77
2023/02/25 11:14:31;;;;;;;;;8.75;6.25;;;;;;;;4998040;28;10433;-76
2023/02/25 11:17:06;;;;;;;;;4.00;4.00;;;;;;;;5010755;28;10701;-76
2023/02/25 11:19:38;;;;;;;;;9.25;8.00;;;;;;;;5011248;28;10751;-75
2023/02/25 11:22:16;;;;;;;;;1.00;1.00;;;;;;;;5002721;28;10721;-75
2023/02/25 11:24:45;;;;;;;;;2.00;2.00;;;;;;;;4995569;28;10332;-75
2023/02/25 11:27:27;;;;;;;;;5.25;5.25;;;;;;;;5003585;28;10332;-75
2023/02/25 11:30:06;;;;;;;;;2.00;2.00;;;;;;;;5013797;28;10529;-75
2023/02/25 11:32:34;;;;;;;;;3.00;1.00;;;;;;;;5005807;28;11210;-76
2023/02/25 11:35:07;;;;;;;;;2.50;2.50;;;;;;;;4994616;28;10517;-75
2023/02/25 11:37:42;;;;;;;;;6.50;6.25;;;;;;;;5010338;28;10488;-76
2023/02/25 11:40:22;;;;;;;;;4.50;4.25;;;;;;;;4996583;28;10789;-75
2023/02/25 11:43:15;;;;;;;;;2.00;2.00;;;;;;;;5007879;28;10845;-75
2023/02/25 11:45:50;;;;;;;;;6.25;4.25;;;;;;;;5005833;28;10652;-76
2023/02/25 11:48:20;;;;;;;;;4.00;4.00;;;;;;;;5009308;28;11724;-75
2023/02/25 11:50:55;;;;;;;;;2.00;2.00;;;;;;;;4993701;28;11699;-75
2023/02/25 11:53:37;;;;;;;;;3.25;2.00;;;;;;;;4992160;28;10926;-76
2023/02/25 11:56:09;;;;;;;;;3.50;3.50;;;;;;;;5000995;28;10769;-75
2023/02/25 11:58:50;;;;;;;;;4.50;4.00;;;;;;;;5008915;28;10701;-74
2023/02/25 12:01:21;;;;;;;;;7.75;3.50;;;;;;;;5005669;28;11745;-74
2023/02/25 12:04:10;;;;;;;;;9.00;6.00;;;;;;;;5004587;28;10748;-76
2023/02/25 12:07:08;;;;;;;;;3.75;3.75;;;;;;;;4988743;28;10939;-75
2023/02/25 12:09:56;;;;;;;;;2.00;2.00;;;;;;;;5005874;28;10667;-77
2023/02/25 12:12:53;;;;;;;;;2.25;2.25;;;;;;;;5025789;28;11336;-76
2023/02/25 12:15:49;;;;;;;;;8.25;8.25;;;;;;;;5029872;28;10484;-76
2023/02/25 12:18:52;;;;;;;;;5.75;5.00;;;;;;;;4950321;28;10733;-75
2023/02/25 12:21:50;;;;;;;;;2.25;0.75;;;;;;;;5020227;28;10415;-73
2023/02/25 12:24:46;;;;;;;;;5.50;2.25;;;;;;;;5022808;28;10137;-75
2023/02/25 12:27:36;;;;;;;;;1.25;1.25;;;;;;;;5003389;28;10175;-74
2023/02/25 12:30:28;;;;;;;;;3.50;3.50;;;;;;;;5013606;28;10228;-75
2023/02/25 12:33:06;;;;;;;;;2.00;2.00;;;;;;;;5024401;28;10298;-75
2023/02/25 12:35:49;;;;;;;;;3.00;3.00;;;;;;;;5021781;28;10433;-75
2023/02/25 12:39:00;;;;;;;;;4.25;4.00;;;;;;;;5013219;28;10326;-75
2023/02/25 12:41:39;;;;;;;;;2.00;1.50;;;;;;;;4974145;28;10313;-76
2023/02/25 12:44:28;;;;;;;;;3.00;1.50;;;;;;;;5020699;28;10288;-75
2023/02/25 12:47:06;;;;;;;;;7.50;7.50;;;;;;;;5021264;28;11251;-73
2023/02/25 12:50:22;;;;;;;;;6.50;3.00;;;;;;;;5021765;28;10827;-73
2023/02/25 12:52:59;;;;;;;;;8.00;6.50;;;;;;;;5017750;28;10694;-73
2023/02/25 12:55:52;;;;;;;;;9.00;7.25;;;;;;;;5019290;28;10972;-73
2023/02/25 12:58:36;;;;;;;;;3.00;2.50;;;;;;;;5023616;28;10961;-74
2023/02/25 13:01:13;;;;;;;;;1.00;1.00;;;;;;;;5019077;28;10959;-73
2023/02/25 13:04:00;;;;;;;;;2.75;1.00;;;;;;;;5019980;28;10900;-73
2023/02/25 13:06:46;;;;;;;;;2.50;2.50;;;;;;;;5021411;28;11005;-74
2023/02/25 13:09:39;;;;;;;;;5.50;3.75;;;;;;;;5020466;28;11912;-73
2023/02/25 13:12:17;;;;;;;;;14.50;10.00;;;;;;;;5004681;28;12035;-74
2023/02/25 13:14:55;;;;;;;;;2.50;2.50;;;;;;;;4999912;28;11436;-74
2023/02/25 13:17:51;;;;;;;;;7.25;5.50;;;;;;;;5021715;28;11239;-74
2023/02/25 13:20:42;;;;;;;;;9.25;8.75;;;;;;;;5021244;28;11534;-73
2023/02/25 13:23:22;;;;;;;;;3.75;3.75;;;;;;;;5002144;28;11479;-75
2023/02/25 13:26:04;;;;;;;;;4.00;4.00;;;;;;;;5019542;28;11085;-75
2023/02/25 13:28:53;;;;;;;;;2.50;2.50;;;;;;;;5020080;28;11865;-74
2023/02/25 13:31:25;;;;;;;;;2.00;2.00;;;;;;;;5021924;28;10701;-73
2023/02/25 13:34:07;;;;;;;;;5.00;3.25;;;;;;;;5001541;28;10519;-73
2023/02/25 13:36:47;;;;;;;;;3.25;3.25;;;;;;;;5001673;28;10391;-74
2023/02/25 13:39:39;;;;;;;;;23.75;13.00;;;;;;;;5021568;28;10191;-74
2023/02/25 13:42:20;;;;;;;;;14.75;14.75;;;;;;;;5018300;28;10476;-74
2023/02/25 13:45:26;;;;;;;;;11.00;9.75;;;;;;;;5019871;28;10499;-73
2023/02/25 13:48:15;;;;;;;;;8.50;6.00;;;;;;;;5020708;28;10091;-73
2023/02/25 13:50:55;;;;;;;;;12.00;10.00;;;;;;;;4990799;28;10111;-72
2023/02/25 13:53:43;;;;;;;;;4.75;4.75;;;;;;;;5001399;28;10407;-73
2023/02/25 13:56:27;;;;;;;;;12.50;11.00;;;;;;;;5018885;28;10334;-73
2023/02/25 13:59:13;;;;;;;;;10.00;10.00;;;;;;;;4989198;28;10681;-73
2023/02/25 14:01:49;;;;;;;;;12.50;11.00;;;;;;;;5019581;28;10637;-73
2023/02/25 14:04:43;;;;;;;;;5.75;5.75;;;;;;;;5019357;28;10893;-72
2023/02/25 14:07:41;;;;;;;;;3.50;3.50;;;;;;;;5017126;28;10719;-73
2023/02/25 14:10:37;;;;;;;;;5.75;5.75;;;;;;;;5020086;28;10628;-72
2023/02/25 14:13:38;;;;;;;;;3.75;2.50;;;;;;;;5017672;28;10853;-72
2023/02/25 14:16:13;;;;;;;;;3.50;3.00;;;;;;;;5024546;28;10847;-74
2023/02/25 14:18:53;;;;;;;;;10.50;9.00;;;;;;;;5005123;28;11017;-74
2023/02/25 14:22:05;;;;;;;;;2.50;2.50;;;;;;;;4991688;28;11100;-73
2023/02/25 14:24:40;;;;;;;;;8.75;3.00;;;;;;;;5006470;28;10903;-73
2023/02/25 14:27:15;;;;;;;;;2.75;2.75;;;;;;;;5021438;28;10963;-76
2023/02/25 14:29:54;;;;;;;;;1.25;1.25;;;;;;;;5020377;28;11070;-73
2023/02/25 14:32:32;;;;;;;;;3.50;3.50;;;;;;;;5021116;28;10968;-74
2023/02/25 14:35:33;;;;;;;;;0.50;0.50;;;;;;;;5023997;28;11081;-74
2023/02/25 14:38:08;;;;;;;;;2.00;2.00;;;;;;;;5009744;28;10822;-74
2023/02/25 14:40:42;;;;;;;;;5.25;1.00;;;;;;;;5024932;28;10752;-75
2023/02/25 14:43:29;;;;;;;;;2.00;1.00;;;;;;;;5021478;28;10679;-74
2023/02/25 14:46:02;;;;;;;;;1.00;1.00;;;;;;;;5020315;28;10417;-75
2023/02/25 14:48:36;;;;;;;;;2.00;2.00;;;;;;;;5023816;28;10490;-75
2023/02/25 14:51:35;;;;;;;;;0.00;0.00;;;;;;;;5031509;28;10293;-75
2023/02/25 14:54:38;;;;;;;;;2.75;1.00;;;;;;;;5011374;28;10243;-74
2023/02/25 14:57:37;;;;;;;;;4.00;2.75;;;;;;;;5011086;28;10205;-74
2023/02/25 15:00:25;;;;;;;;;1.25;1.00;;;;;;;;5003048;28;10339;-74
2023/02/25 15:03:21;;;;;;;;;5.00;4.00;;;;;;;;5024579;28;10192;-74
2023/02/25 15:06:02;;;;;;;;;9.25;8.00;;;;;;;;4987079;28;11393;-74
2023/02/25 15:08:48;;;;;;;;;9.00;8.00;;;;;;;;5024111;28;10782;-74
2023/02/25 15:11:50;;;;;;;;;4.00;4.00;;;;;;;;5025198;28;10986;-72
2023/02/25 15:14:56;;;;;;;;;14.50;10.50;;;;;;;;5029746;28;10849;-73
2023/02/25 15:18:04;;;;;;;;;12.75;12.75;;;;;;;;5024042;28;11262;-73